sensor_id;sensor_type;location;lat;lon;timestamp;pressure;altitude;pressure_sealevel;temperature;humidity
2401;BME280;1211;43.200;27.914;2023-04-08T00:01:43;101627.75;;;12.30;100.00
2401;BME280;1211;43.200;27.914;2023-04-08T00:04:10;101637.81;;;12.26;100.00
2401;BME280;1211;43.200;27.914;2023-04-08T00:06:38;101632.56;;;12.47;100.00
2401;BME280;1211;43.200;27.914;2023-04-08T00:09:06;101632.19;;;12.40;100.00
2401;BME280;1211;43.200;27.914;2023-04-08T00:11:33;101625.47;;;12.32;100.00
2401;BME280;1211;43.200;27.914;2023-04-08T00:14:01;101628.84;;;12.21;100.00
2401;BME280;1211;43.200;27.914;2023-04-08T00:16:28;101630.47;;;12.22;100.00
2401;BME280;1211;43.200;27.914;2023-04-08T00:18:55;101628.13;;;12.07;100.00
2401;BME280;1211;43.200;27.914;2023-04-08T00:21:21;101625.88;;;12.09;100.00
2401;BME280;1211;43.200;27.914;2023-04-08T00:23:48;101620.94;;;12.06;100.00
2401;BME280;1211;43.200;27.914;2023-04-08T00:26:16;101632.22;;;12.18;100.00
2401;BME280;1211;43.200;27.914;2023-04-08T00:28:43;101623.47;;;11.93;100.00
2401;BME280;1211;43.200;27.914;2023-04-08T00:31:10;101630.91;;;12.15;100.00
2401;BME280;1211;43.200;27.914;2023-04-08T00:33:36;101631.56;;;12.12;100.00
2401;BME280;1211;43.200;27.914;2023-04-08T00:36:03;101630.81;;;12.20;100.00
2401;BME280;1211;43.200;27.914;2023-04-08T00:38:30;101634.41;;;12.29;100.00
2401;BME280;1211;43.200;27.914;2023-04-08T00:40:57;101632.78;;;12.28;100.00
2401;BME280;1211;43.200;27.914;2023-04-08T00:43:25;101640.31;;;12.36;100.00
2401;BME280;1211;43.200;27.914;2023-04-08T00:45:51;101635.63;;;11.92;100.00
2401;BME280;1211;43.200;27.914;2023-04-08T00:48:18;101636.63;;;12.19;100.00
2401;BME280;1211;43.200;27.914;2023-04-08T00:50:45;101630.28;;;12.18;100.00
2401;BME280;1211;43.200;27.914;2023-04-08T00:53:12;101631.81;;;12.33;100.00
2401;BME280;1211;43.200;27.914;2023-04-08T00:55:38;101626.00;;;12.34;100.00
2401;BME280;1211;43.200;27.914;2023-04-08T00:58:05;101632.31;;;12.26;100.00
2401;BME280;1211;43.200;27.914;2023-04-08T01:00:33;101632.38;;;12.44;100.00
2401;BME280;1211;43.200;27.914;2023-04-08T01:03:04;101635.81;;;12.49;100.00
2401;BME280;1211;43.200;27.914;2023-04-08T01:05:35;101629.28;;;12.45;100.00
2401;BME280;1211;43.200;27.914;2023-04-08T01:08:05;101631.56;;;12.43;100.00
2401;BME280;1211;43.200;27.914;2023-04-08T01:10:33;101622.25;;;12.30;100.00
2401;BME280;1211;43.200;27.914;2023-04-08T01:13:04;101627.03;;;12.16;100.00
2401;BME280;1211;43.200;27.914;2023-04-08T01:15:36;101631.00;;;12.32;100.00
2401;BME280;1211;43.200;27.914;2023-04-08T01:18:05;101628.47;;;12.45;100.00
2401;BME280;1211;43.200;27.914;2023-04-08T01:20:32;101628.59;;;12.39;100.00
2401;BME280;1211;43.200;27.914;2023-04-08T01:23:02;101634.63;;;12.42;100.00
2401;BME280;1211;43.200;27.914;2023-04-08T01:25:32;101628.88;;;12.29;100.00
2401;BME280;1211;43.200;27.914;2023-04-08T01:28:02;101628.47;;;12.45;100.00
2401;BME280;1211;43.200;27.914;2023-04-08T01:30:30;101627.19;;;12.51;100.00
2401;BME280;1211;43.200;27.914;2023-04-08T01:32:58;101632.38;;;12.44;100.00
2401;BME280;1211;43.200;27.914;2023-04-08T01:35:25;101630.53;;;12.30;100.00
2401;BME280;1211;43.200;27.914;2023-04-08T01:37:52;101632.31;;;12.26;100.00
2401;BME280;1211;43.200;27.914;2023-04-08T01:40:19;101625.84;;;12.39;100.00
2401;BME280;1211;43.200;27.914;2023-04-08T01:42:46;101632.56;;;12.47;100.00
2401;BME280;1211;43.200;27.914;2023-04-08T01:45:15;101632.25;;;12.49;100.00
2401;BME280;1211;43.200;27.914;2023-04-08T01:47:42;101636.34;;;12.60;100.00
2401;BME280;1211;43.200;27.914;2023-04-08T01:50:11;101632.78;;;12.68;100.00
2401;BME280;1211;43.200;27.914;2023-04-08T01:52:39;101629.41;;;12.79;100.00
2401;BME280;1211;43.200;27.914;2023-04-08T01:55:07;101631.44;;;12.48;100.00
2401;BME280;1211;43.200;27.914;2023-04-08T01:57:34;101626.63;;;11.65;100.00
2401;BME280;1211;43.200;27.914;2023-04-08T02:00:03;101620.03;;;11.88;100.00
2401;BME280;1211;43.200;27.914;2023-04-08T02:02:34;101619.63;;;12.25;100.00
2401;BME280;1211;43.200;27.914;2023-04-08T02:05:02;101620.88;;;12.19;100.00
2401;BME280;1211;43.200;27.914;2023-04-08T02:07:28;101624.78;;;12.18;100.00
2401;BME280;1211;43.200;27.914;2023-04-08T02:09:55;101624.25;;;12.16;100.00
2401;BME280;1211;43.200;27.914;2023-04-08T02:12:22;101623.41;;;12.38;100.00
2401;BME280;1211;43.200;27.914;2023-04-08T02:14:50;101619.34;;;12.35;100.00
2401;BME280;1211;43.200;27.914;2023-04-08T02:17:18;101620.31;;;12.39;100.00
2401;BME280;1211;43.200;27.914;2023-04-08T02:19:51;101628.44;;;11.83;100.00
2401;BME280;1211;43.200;27.914;2023-04-08T02:22:21;101633.09;;;11.74;100.00
2401;BME280;1211;43.200;27.914;2023-04-08T02:24:49;101637.72;;;11.87;100.00
2401;BME280;1211;43.200;27.914;2023-04-08T02:27:16;101641.13;;;11.84;100.00
2401;BME280;1211;43.200;27.914;2023-04-08T02:29:43;101643.34;;;12.04;100.00
2401;BME280;1211;43.200;27.914;2023-04-08T02:32:11;101649.03;;;12.30;100.00
2401;BME280;1211;43.200;27.914;2023-04-08T02:34:38;101649.59;;;12.41;100.00
2401;BME280;1211;43.200;27.914;2023-04-08T02:37:07;101656.22;;;12.39;100.00
2401;BME280;1211;43.200;27.914;2023-04-08T02:39:34;101645.22;;;12.17;100.00
2401;BME280;1211;43.200;27.914;2023-04-08T02:42:01;101659.16;;;12.12;100.00
2401;BME280;1211;43.200;27.914;2023-04-08T02:44:29;101655.66;;;11.76;100.00
2401;BME280;1211;43.200;27.914;2023-04-08T02:46:56;101661.63;;;11.55;100.00
2401;BME280;1211;43.200;27.914;2023-04-08T02:49:22;101664.63;;;11.81;100.00
2401;BME280;1211;43.200;27.914;2023-04-08T02:51:49;101662.94;;;11.94;100.00
2401;BME280;1211;43.200;27.914;2023-04-08T02:54:17;101654.53;;;11.99;100.00
2401;BME280;1211;43.200;27.914;2023-04-08T02:56:44;101666.66;;;11.89;100.00
2401;BME280;1211;43.200;27.914;2023-04-08T02:59:11;101658.94;;;12.00;100.00
2401;BME280;1211;43.200;27.914;2023-04-08T03:01:37;101657.09;;;11.95;100.00
2401;BME280;1211;43.200;27.914;2023-04-08T03:04:04;101653.22;;;11.96;100.00
2401;BME280;1211;43.200;27.914;2023-04-08T03:06:31;101656.94;;;11.92;100.00
2401;BME280;1211;43.200;27.914;2023-04-08T03:08:57;101657.50;;;11.80;100.00
2401;BME280;1211;43.200;27.914;2023-04-08T03:11:25;101665.97;;;11.84;100.00
2401;BME280;1211;43.200;27.914;2023-04-08T03:13:52;101670.78;;;11.78;100.00
2401;BME280;1211;43.200;27.914;2023-04-08T03:16:19;101664.50;;;11.86;100.00
2401;BME280;1211;43.200;27.914;2023-04-08T03:18:46;101662.19;;;11.80;100.00
2401;BME280;1211;43.200;27.914;2023-04-08T03:21:12;101665.56;;;11.77;100.00
2401;BME280;1211;43.200;27.914;2023-04-08T03:23:39;101663.72;;;11.86;100.00
2401;BME280;1211;43.200;27.914;2023-04-08T03:26:05;101662.56;;;11.87;100.00
2401;BME280;1211;43.200;27.914;2023-04-08T03:28:34;101668.28;;;11.90;100.00
2401;BME280;1211;43.200;27.914;2023-04-08T03:31:01;101665.44;;;11.82;100.00
2401;BME280;1211;43.200;27.914;2023-04-08T03:33:28;101675.06;;;11.84;100.00
2401;BME280;1211;43.200;27.914;2023-04-08T03:35:54;101675.88;;;11.85;100.00
2401;BME280;1211;43.200;27.914;2023-04-08T03:38:21;101672.22;;;11.76;100.00
2401;BME280;1211;43.200;27.914;2023-04-08T03:40:48;101676.25;;;11.56;100.00
2401;BME280;1211;43.200;27.914;2023-04-08T03:43:15;101684.59;;;11.65;100.00
2401;BME280;1211;43.200;27.914;2023-04-08T03:45:45;101684.72;;;11.60;100.00
2401;BME280;1211;43.200;27.914;2023-04-08T03:48:11;101687.22;;;11.70;100.00
2401;BME280;1211;43.200;27.914;2023-04-08T03:50:38;101689.75;;;11.44;100.00
2401;BME280;1211;43.200;27.914;2023-04-08T03:53:05;101689.34;;;11.50;100.00
2401;BME280;1211;43.200;27.914;2023-04-08T03:55:35;101700.31;;;11.64;100.00
2401;BME280;1211;43.200;27.914;2023-04-08T03:58:01;101698.50;;;11.73;100.00
2401;BME280;1211;43.200;27.914;2023-04-08T04:00:28;101702.81;;;11.52;100.00
2401;BME280;1211;43.200;27.914;2023-04-08T04:02:56;101700.56;;;11.40;100.00
2401;BME280;1211;43.200;27.914;2023-04-08T04:05:23;101698.75;;;11.49;100.00
2401;BME280;1211;43.200;27.914;2023-04-08T04:07:50;101703.72;;;11.75;100.00
2401;BME280;1211;43.200;27.914;2023-04-08T04:10:16;101709.59;;;11.82;100.00
2401;BME280;1211;43.200;27.914;2023-04-08T04:12:43;101707.41;;;11.92;100.00
2401;BME280;1211;43.200;27.914;2023-04-08T04:15:11;101716.19;;;11.58;100.00
2401;BME280;1211;43.200;27.914;2023-04-08T04:17:38;101716.47;;;11.71;100.00
2401;BME280;1211;43.200;27.914;2023-04-08T04:20:07;101711.25;;;12.05;100.00
2401;BME280;1211;43.200;27.914;2023-04-08T04:22:34;101710.25;;;12.23;100.00
2401;BME280;1211;43.200;27.914;2023-04-08T04:25:00;101717.41;;;12.24;100.00
2401;BME280;1211;43.200;27.914;2023-04-08T04:27:27;101721.69;;;12.30;100.00
2401;BME280;1211;43.200;27.914;2023-04-08T04:29:54;101715.72;;;12.37;100.00
2401;BME280;1211;43.200;27.914;2023-04-08T04:32:21;101718.78;;;12.13;100.00
2401;BME280;1211;43.200;27.914;2023-04-08T04:34:47;101717.66;;;11.92;100.00
2401;BME280;1211;43.200;27.914;2023-04-08T04:37:15;101716.88;;;11.78;100.00
2401;BME280;1211;43.200;27.914;2023-04-08T04:39:42;101706.84;;;11.82;100.00
2401;BME280;1211;43.200;27.914;2023-04-08T04:42:09;101712.19;;;12.01;100.00
2401;BME280;1211;43.200;27.914;2023-04-08T04:44:35;101705.38;;;12.20;100.00
2401;BME280;1211;43.200;27.914;2023-04-08T04:47:02;101702.94;;;12.50;100.00
2401;BME280;1211;43.200;27.914;2023-04-08T04:49:29;101702.13;;;12.80;100.00
2401;BME280;1211;43.200;27.914;2023-04-08T04:51:55;101701.13;;;12.45;100.00
2401;BME280;1211;43.200;27.914;2023-04-08T04:54:23;101711.38;;;12.00;100.00
2401;BME280;1211;43.200;27.914;2023-04-08T04:56:50;101709.81;;;12.30;100.00
2401;BME280;1211;43.200;27.914;2023-04-08T04:59:17;101712.31;;;12.18;100.00
2401;BME280;1211;43.200;27.914;2023-04-08T05:01:43;101716.31;;;12.34;100.00
2401;BME280;1211;43.200;27.914;2023-04-08T05:04:10;101716.41;;;12.20;100.00
2401;BME280;1211;43.200;27.914;2023-04-08T05:06:37;101717.41;;;12.24;100.00
2401;BME280;1211;43.200;27.914;2023-04-08T05:09:03;101717.44;;;12.86;100.00
2401;BME280;1211;43.200;27.914;2023-04-08T05:11:31;101722.13;;;12.77;100.00
2401;BME280;1211;43.200;27.914;2023-04-08T05:13:58;101722.66;;;12.96;100.00
2401;BME280;1211;43.200;27.914;2023-04-08T05:16:25;101730.97;;;12.96;100.00
2401;BME280;1211;43.200;27.914;2023-04-08T05:18:51;101720.69;;;12.88;100.00
2401;BME280;1211;43.200;27.914;2023-04-08T05:21:18;101723.84;;;12.64;100.00
2401;BME280;1211;43.200;27.914;2023-04-08T05:23:45;101729.63;;;13.25;100.00
2401;BME280;1211;43.200;27.914;2023-04-08T05:26:11;101730.13;;;13.27;100.00
2401;BME280;1211;43.200;27.914;2023-04-08T05:28:39;101726.31;;;13.71;100.00
2401;BME280;1211;43.200;27.914;2023-04-08T05:31:06;101719.63;;;14.49;100.00
2401;BME280;1211;43.200;27.914;2023-04-08T05:33:33;101721.84;;;14.64;100.00
2401;BME280;1211;43.200;27.914;2023-04-08T05:35:59;101724.22;;;15.59;100.00
2401;BME280;1211;43.200;27.914;2023-04-08T05:38:26;101727.44;;;16.56;92.93
2401;BME280;1211;43.200;27.914;2023-04-08T05:40:53;101726.97;;;17.23;83.02
2401;BME280;1211;43.200;27.914;2023-04-08T05:43:20;101731.19;;;18.22;79.60
2401;BME280;1211;43.200;27.914;2023-04-08T05:45:48;101737.75;;;17.74;79.02
2401;BME280;1211;43.200;27.914;2023-04-08T05:48:15;101732.06;;;17.70;80.69
2401;BME280;1211;43.200;27.914;2023-04-08T05:50:42;101730.31;;;17.17;83.44
2401;BME280;1211;43.200;27.914;2023-04-08T05:53:08;101727.09;;;17.03;84.43
2401;BME280;1211;43.200;27.914;2023-04-08T05:55:35;101721.16;;;17.28;84.41
2401;BME280;1211;43.200;27.914;2023-04-08T05:58:02;101727.78;;;16.55;85.17
2401;BME280;1211;43.200;27.914;2023-04-08T06:00:28;101732.63;;;16.91;85.80
2401;BME280;1211;43.200;27.914;2023-04-08T06:02:57;101742.06;;;17.10;84.91
2401;BME280;1211;43.200;27.914;2023-04-08T06:05:23;101731.81;;;17.51;83.57
2401;BME280;1211;43.200;27.914;2023-04-08T06:07:50;101739.91;;;16.83;85.86
2401;BME280;1211;43.200;27.914;2023-04-08T06:10:17;101740.88;;;17.48;84.48
2401;BME280;1211;43.200;27.914;2023-04-08T06:12:43;101742.16;;;17.50;82.63
2401;BME280;1211;43.200;27.914;2023-04-08T06:15:10;101749.38;;;18.03;81.35
2401;BME280;1211;43.200;27.914;2023-04-08T06:17:37;101743.03;;;18.31;78.69
2401;BME280;1211;43.200;27.914;2023-04-08T06:20:06;101747.38;;;17.40;82.23
2401;BME280;1211;43.200;27.914;2023-04-08T06:22:33;101748.69;;;16.61;87.29
2401;BME280;1211;43.200;27.914;2023-04-08T06:25:00;101746.44;;;16.87;85.85
2401;BME280;1211;43.200;27.914;2023-04-08T06:27:27;101746.81;;;16.98;85.49
2401;BME280;1211;43.200;27.914;2023-04-08T06:29:53;101741.81;;;17.64;83.82
2401;BME280;1211;43.200;27.914;2023-04-08T06:32:20;101741.13;;;17.67;81.69
2401;BME280;1211;43.200;27.914;2023-04-08T06:34:47;101737.94;;;18.21;80.30
2401;BME280;1211;43.200;27.914;2023-04-08T06:37:15;101737.47;;;18.59;76.99
2401;BME280;1211;43.200;27.914;2023-04-08T06:39:42;101742.16;;;18.86;77.35
2401;BME280;1211;43.200;27.914;2023-04-08T06:42:08;101741.97;;;18.63;76.03
2401;BME280;1211;43.200;27.914;2023-04-08T06:44:35;101740.44;;;19.13;75.43
2401;BME280;1211;43.200;27.914;2023-04-08T06:47:02;101736.38;;;19.42;73.44
2401;BME280;1211;43.200;27.914;2023-04-08T06:49:28;101745.41;;;19.04;73.35
2401;BME280;1211;43.200;27.914;2023-04-08T06:51:55;101748.50;;;19.81;71.91
2401;BME280;1211;43.200;27.914;2023-04-08T06:54:23;101750.94;;;20.01;70.12
2401;BME280;1211;43.200;27.914;2023-04-08T06:56:50;101745.31;;;19.47;70.77
2401;BME280;1211;43.200;27.914;2023-04-08T06:59:16;101752.63;;;19.52;71.86
2401;BME280;1211;43.200;27.914;2023-04-08T07:01:43;101750.53;;;19.33;71.53
2401;BME280;1211;43.200;27.914;2023-04-08T07:04:10;101756.09;;;18.15;76.61
2401;BME280;1211;43.200;27.914;2023-04-08T07:06:37;101763.19;;;18.12;78.64
2401;BME280;1211;43.200;27.914;2023-04-08T07:09:04;101762.41;;;18.67;77.09
2401;BME280;1211;43.200;27.914;2023-04-08T07:11:32;101749.47;;;18.90;75.87
2401;BME280;1211;43.200;27.914;2023-04-08T07:13:59;101769.94;;;19.92;72.19
2401;BME280;1211;43.200;27.914;2023-04-08T07:16:25;101773.03;;;19.71;71.25
2401;BME280;1211;43.200;27.914;2023-04-08T07:18:52;101768.41;;;20.14;70.57
2401;BME280;1211;43.200;27.914;2023-04-08T07:21:19;101772.81;;;20.15;69.72
2401;BME280;1211;43.200;27.914;2023-04-08T07:23:45;101778.19;;;19.38;71.00
2401;BME280;1211;43.200;27.914;2023-04-08T07:26:12;101778.41;;;18.15;76.76
2401;BME280;1211;43.200;27.914;2023-04-08T07:28:40;101778.31;;;18.67;76.56
2401;BME280;1211;43.200;27.914;2023-04-08T07:31:11;101781.28;;;18.58;75.29
2401;BME280;1211;43.200;27.914;2023-04-08T07:33:38;101782.56;;;18.21;76.95
2401;BME280;1211;43.200;27.914;2023-04-08T07:36:05;101781.28;;;17.78;79.40
2401;BME280;1211;43.200;27.914;2023-04-08T07:38:31;101784.53;;;17.56;81.17
2401;BME280;1211;43.200;27.914;2023-04-08T07:40:58;101782.19;;;17.46;82.44
2401;BME280;1211;43.200;27.914;2023-04-08T07:43:25;101780.09;;;18.31;79.75
2401;BME280;1211;43.200;27.914;2023-04-08T07:45:55;101772.19;;;18.61;78.65
2401;BME280;1211;43.200;27.914;2023-04-08T07:48:26;101775.03;;;18.92;78.05
2401;BME280;1211;43.200;27.914;2023-04-08T07:50:53;101781.56;;;19.28;75.61
2401;BME280;1211;43.200;27.914;2023-04-08T07:53:20;101778.88;;;18.72;76.33
2401;BME280;1211;43.200;27.914;2023-04-08T07:55:46;101785.59;;;19.15;77.32
2401;BME280;1211;43.200;27.914;2023-04-08T07:58:13;101774.09;;;19.83;74.29
2401;BME280;1211;43.200;27.914;2023-04-08T08:00:40;101784.84;;;20.00;72.45
2401;BME280;1211;43.200;27.914;2023-04-08T08:03:08;101784.47;;;19.82;72.97
2401;BME280;1211;43.200;27.914;2023-04-08T08:05:35;101787.13;;;19.59;74.22
2401;BME280;1211;43.200;27.914;2023-04-08T08:08:03;101786.69;;;19.57;74.46
2401;BME280;1211;43.200;27.914;2023-04-08T08:10:31;101790.97;;;20.40;71.96
2401;BME280;1211;43.200;27.914;2023-04-08T08:12:58;101800.25;;;20.44;71.23
2401;BME280;1211;43.200;27.914;2023-04-08T08:15:25;101788.34;;;20.70;69.28
2401;BME280;1211;43.200;27.914;2023-04-08T08:17:52;101792.03;;;21.16;68.05
2401;BME280;1211;43.200;27.914;2023-04-08T08:20:20;101791.94;;;21.58;67.04
2401;BME280;1211;43.200;27.914;2023-04-08T08:22:46;101799.44;;;20.86;67.96
2401;BME280;1211;43.200;27.914;2023-04-08T08:25:13;101796.38;;;20.14;70.08
2401;BME280;1211;43.200;27.914;2023-04-08T08:27:40;101800.25;;;21.28;68.38
2401;BME280;1211;43.200;27.914;2023-04-08T08:30:07;101788.53;;;21.72;65.28
2401;BME280;1211;43.200;27.914;2023-04-08T08:32:34;101799.56;;;20.51;68.05
2401;BME280;1211;43.200;27.914;2023-04-08T08:35:01;101802.16;;;20.05;70.75
2401;BME280;1211;43.200;27.914;2023-04-08T08:37:29;101806.69;;;19.28;72.84
2401;BME280;1211;43.200;27.914;2023-04-08T08:39:56;101805.00;;;18.24;78.16
2401;BME280;1211;43.200;27.914;2023-04-08T08:42:23;101802.72;;;18.42;78.83
2401;BME280;1211;43.200;27.914;2023-04-08T08:44:50;101806.56;;;17.97;80.60
2401;BME280;1211;43.200;27.914;2023-04-08T08:47:16;101801.13;;;17.77;81.62
2401;BME280;1211;43.200;27.914;2023-04-08T08:49:44;101812.28;;;18.29;81.32
2401;BME280;1211;43.200;27.914;2023-04-08T08:52:14;101803.34;;;19.22;77.74
2401;BME280;1211;43.200;27.914;2023-04-08T08:54:42;101806.72;;;18.84;75.95
2401;BME280;1211;43.200;27.914;2023-04-08T08:57:15;101815.22;;;19.04;76.89
2401;BME280;1211;43.200;27.914;2023-04-08T08:59:43;101810.88;;;17.83;82.21
2401;BME280;1211;43.200;27.914;2023-04-08T09:02:21;101819.28;;;18.23;82.46
2401;BME280;1211;43.200;27.914;2023-04-08T09:04:54;101815.38;;;17.99;82.32
2401;BME280;1211;43.200;27.914;2023-04-08T09:07:22;101818.75;;;17.32;86.39
2401;BME280;1211;43.200;27.914;2023-04-08T09:09:51;101819.81;;;17.27;86.06
2401;BME280;1211;43.200;27.914;2023-04-08T09:12:18;101811.91;;;17.42;83.76
2401;BME280;1211;43.200;27.914;2023-04-08T09:14:45;101821.88;;;17.30;84.54
2401;BME280;1211;43.200;27.914;2023-04-08T09:17:12;101813.22;;;16.87;86.00
2401;BME280;1211;43.200;27.914;2023-04-08T09:19:39;101826.66;;;16.85;89.62
2401;BME280;1211;43.200;27.914;2023-04-08T09:22:06;101819.38;;;17.62;87.02
2401;BME280;1211;43.200;27.914;2023-04-08T09:24:33;101824.41;;;18.08;85.32
2401;BME280;1211;43.200;27.914;2023-04-08T09:27:01;101822.38;;;17.45;85.10
2401;BME280;1211;43.200;27.914;2023-04-08T09:29:27;101825.34;;;17.40;86.95
2401;BME280;1211;43.200;27.914;2023-04-08T09:31:55;101825.59;;;17.35;87.72
2401;BME280;1211;43.200;27.914;2023-04-08T09:34:22;101826.31;;;17.56;85.87
2401;BME280;1211;43.200;27.914;2023-04-08T09:36:49;101823.19;;;17.94;84.70
2401;BME280;1211;43.200;27.914;2023-04-08T09:39:16;101827.41;;;18.28;82.70
2401;BME280;1211;43.200;27.914;2023-04-08T09:41:43;101820.53;;;17.73;85.36
2401;BME280;1211;43.200;27.914;2023-04-08T09:44:11;101821.16;;;18.19;84.24
2401;BME280;1211;43.200;27.914;2023-04-08T09:46:38;101821.19;;;17.34;87.57
2401;BME280;1211;43.200;27.914;2023-04-08T09:49:06;101823.28;;;17.24;88.74
2401;BME280;1211;43.200;27.914;2023-04-08T09:51:39;101821.78;;;17.51;88.89
2401;BME280;1211;43.200;27.914;2023-04-08T09:54:10;101814.84;;;17.82;86.78
2401;BME280;1211;43.200;27.914;2023-04-08T09:56:39;101813.41;;;17.27;89.36
2401;BME280;1211;43.200;27.914;2023-04-08T09:59:08;101826.31;;;17.68;87.35
2401;BME280;1211;43.200;27.914;2023-04-08T10:01:39;101812.22;;;18.81;84.66
2401;BME280;1211;43.200;27.914;2023-04-08T10:04:17;101811.28;;;19.05;80.17
2401;BME280;1211;43.200;27.914;2023-04-08T10:06:45;101815.38;;;17.99;82.95
2401;BME280;1211;43.200;27.914;2023-04-08T10:09:15;101797.44;;;18.65;82.60
2401;BME280;1211;43.200;27.914;2023-04-08T10:11:42;101805.88;;;20.29;75.96
2401;BME280;1211;43.200;27.914;2023-04-08T10:14:09;101812.09;;;19.68;75.20
2401;BME280;1211;43.200;27.914;2023-04-08T10:16:36;101808.25;;;19.57;75.77
2401;BME280;1211;43.200;27.914;2023-04-08T10:19:04;101809.66;;;19.35;78.24
2401;BME280;1211;43.200;27.914;2023-04-08T10:21:51;101802.47;;;18.47;79.56
2401;BME280;1211;43.200;27.914;2023-04-08T10:24:18;101792.16;;;18.35;81.60
2401;BME280;1211;43.200;27.914;2023-04-08T10:26:49;101799.47;;;20.28;75.26
2401;BME280;1211;43.200;27.914;2023-04-08T10:32:06;101799.00;;;18.93;78.38
2401;BME280;1211;43.200;27.914;2023-04-08T10:34:35;101793.38;;;19.88;74.69
2401;BME280;1211;43.200;27.914;2023-04-08T10:37:16;101797.41;;;20.25;72.47
2401;BME280;1211;43.200;27.914;2023-04-08T10:39:47;101794.53;;;20.22;71.72
2401;BME280;1211;43.200;27.914;2023-04-08T10:42:14;101786.63;;;20.43;72.99
2401;BME280;1211;43.200;27.914;2023-04-08T10:44:43;101782.63;;;19.39;73.11
2401;BME280;1211;43.200;27.914;2023-04-08T10:47:10;101799.81;;;19.72;74.60
2401;BME280;1211;43.200;27.914;2023-04-08T10:49:38;101797.50;;;18.68;76.90
2401;BME280;1211;43.200;27.914;2023-04-08T10:52:06;101807.22;;;18.19;80.95
2401;BME280;1211;43.200;27.914;2023-04-08T10:54:33;101800.53;;;18.91;77.60
2401;BME280;1211;43.200;27.914;2023-04-08T10:57:01;101802.19;;;17.84;79.10
2401;BME280;1211;43.200;27.914;2023-04-08T10:59:28;101792.78;;;17.64;81.77
2401;BME280;1211;43.200;27.914;2023-04-08T11:01:56;101800.44;;;17.55;83.49
2401;BME280;1211;43.200;27.914;2023-04-08T11:04:23;101797.38;;;17.12;88.09
2401;BME280;1211;43.200;27.914;2023-04-08T11:06:51;101796.75;;;16.94;88.64
2401;BME280;1211;43.200;27.914;2023-04-08T11:09:18;101808.25;;;16.60;89.92
2401;BME280;1211;43.200;27.914;2023-04-08T11:11:45;101802.50;;;16.23;94.06
2401;BME280;1211;43.200;27.914;2023-04-08T11:14:12;101794.38;;;16.72;95.66
2401;BME280;1211;43.200;27.914;2023-04-08T11:16:39;101799.81;;;16.47;93.91
2401;BME280;1211;43.200;27.914;2023-04-08T11:19:06;101791.28;;;16.53;94.00
2401;BME280;1211;43.200;27.914;2023-04-08T11:21:36;101793.28;;;16.11;98.25
2401;BME280;1211;43.200;27.914;2023-04-08T11:24:08;101785.84;;;16.89;96.54
2401;BME280;1211;43.200;27.914;2023-04-08T11:26:36;101778.50;;;17.42;90.99
2401;BME280;1211;43.200;27.914;2023-04-08T11:29:02;101777.00;;;17.32;90.23
2401;BME280;1211;43.200;27.914;2023-04-08T11:31:30;101774.53;;;17.55;91.83
2401;BME280;1211;43.200;27.914;2023-04-08T11:33:57;101781.19;;;18.15;87.95
2401;BME280;1211;43.200;27.914;2023-04-08T11:36:24;101772.00;;;17.38;88.55
2401;BME280;1211;43.200;27.914;2023-04-08T11:38:52;101770.13;;;17.54;91.05
2401;BME280;1211;43.200;27.914;2023-04-08T11:41:21;101769.69;;;17.64;89.72
2401;BME280;1211;43.200;27.914;2023-04-08T11:43:54;101764.91;;;18.17;85.79
2401;BME280;1211;43.200;27.914;2023-04-08T11:46:21;101761.00;;;18.05;84.28
2401;BME280;1211;43.200;27.914;2023-04-08T11:48:58;101761.53;;;17.59;85.90
2401;BME280;1211;43.200;27.914;2023-04-08T11:51:24;101765.78;;;17.93;84.92
2401;BME280;1211;43.200;27.914;2023-04-08T11:53:52;101764.88;;;17.89;85.00
2401;BME280;1211;43.200;27.914;2023-04-08T11:56:19;101760.00;;;18.26;83.01
2401;BME280;1211;43.200;27.914;2023-04-08T11:58:48;101753.75;;;18.17;82.83
2401;BME280;1211;43.200;27.914;2023-04-08T12:01:14;101752.59;;;18.18;82.70
2401;BME280;1211;43.200;27.914;2023-04-08T12:03:52;101757.59;;;17.11;86.55
2401;BME280;1211;43.200;27.914;2023-04-08T12:06:19;101751.50;;;17.94;84.03
2401;BME280;1211;43.200;27.914;2023-04-08T12:08:45;101748.19;;;17.40;82.96
2401;BME280;1211;43.200;27.914;2023-04-08T12:11:12;101740.63;;;16.80;85.78
2401;BME280;1211;43.200;27.914;2023-04-08T12:13:40;101748.06;;;17.00;86.89
2401;BME280;1211;43.200;27.914;2023-04-08T12:16:08;101741.09;;;17.06;86.11
2401;BME280;1211;43.200;27.914;2023-04-08T12:18:34;101742.06;;;17.10;86.85
2401;BME280;1211;43.200;27.914;2023-04-08T12:21:02;101744.34;;;16.96;89.33
2401;BME280;1211;43.200;27.914;2023-04-08T12:23:28;101746.13;;;17.61;86.21
2401;BME280;1211;43.200;27.914;2023-04-08T12:25:55;101747.59;;;17.47;87.51
2401;BME280;1211;43.200;27.914;2023-04-08T12:28:22;101736.97;;;17.61;87.21
2401;BME280;1211;43.200;27.914;2023-04-08T12:30:49;101727.91;;;18.04;84.77
2401;BME280;1211;43.200;27.914;2023-04-08T12:33:17;101731.19;;;17.94;83.70
2401;BME280;1211;43.200;27.914;2023-04-08T12:35:43;101740.97;;;16.45;89.80
2401;BME280;1211;43.200;27.914;2023-04-08T12:38:10;101728.75;;;16.05;93.49
2401;BME280;1211;43.200;27.914;2023-04-08T12:40:37;101720.09;;;16.19;94.83
2401;BME280;1211;43.200;27.914;2023-04-08T12:43:03;101721.13;;;16.14;95.57
2401;BME280;1211;43.200;27.914;2023-04-08T12:45:30;101721.69;;;16.28;97.65
2401;BME280;1211;43.200;27.914;2023-04-08T12:47:57;101713.94;;;16.13;99.83
2401;BME280;1211;43.200;27.914;2023-04-08T12:50:25;101719.53;;;16.46;97.35
2401;BME280;1211;43.200;27.914;2023-04-08T12:52:51;101719.75;;;16.41;96.41
2401;BME280;1211;43.200;27.914;2023-04-08T12:55:18;101712.03;;;15.93;100.00
2401;BME280;1211;43.200;27.914;2023-04-08T12:57:48;101724.06;;;15.26;100.00
2401;BME280;1211;43.200;27.914;2023-04-08T13:00:15;101721.63;;;15.75;100.00